Accueil
METAR-TAF:

METAR-TAF

Aéroports :

Aéroport Albert-Picardie

Albert, France

latitude: 49-58-21N, longitude: 002-41-29E, altitude: 111 m

Observation

Le bulletin a été fait il y a 26 minutes, à 14:30 UTC
Vent 12 kt de sud/sud-ouest
Température 7°C
Humidité 100%
Pression 1014 hPa
Visibilité: 9000 m
Nuages fragmentés à une hauteur de 700 ft
Ciel couvert à une hauteur de 1600 ft

METAR: LFAQ 261430Z AUTO 20012KT 9000 BKN007 OVC016 07/07 Q1014 NOSIG

Heure: 15:56 (14:56 UTC)

Prévision

Le bulletin a été fait il y a 56 minutes, à 14:00 UTC
Prévision valable du 26 à 15 UTC au 26 à 24 UTC
Vent 8 kt de sud/sud-ouest
Visibilité: 8000 m
Nuages fragmentés à une hauteur de 800 ft
Nuages fragmentés à une hauteur de 1500 ft
Temporairement
du 26 à 20 UTC au 26 à 24 UTC
Vent 15 kt de sud/sud-ouest avec des rafales jusqu'à 25 kt
pluie

TAF: LFAQ 261400Z 2615/2624 20008KT 8000 NSW BKN008 BKN015 TEMPO 2620/2624 20015G25KT RA

Observations et prévisions météorologiques de plus de 4000 aéroports (messages METAR et TAF).

Les stations disponibles sont représentées par des disques jaunes et rouges sur la carte.

Passer la souris dessus pour voir le nom de la station.

Cliquer dessus pour voir les observations et prévisions météorologiques.

Pour changer de carte: cliquez sur les boutons verts avec une croix noire pour zoomer, sur le bouton vert avec un tiret pour effectuer un zoom arrière, ou sur les flèches vertes pour les cartes adjacentes.


METAR-TAF: